sensor_id;sensor_type;location;lat;lon;timestamp;P1;durP1;ratioP1;P2;durP2;ratioP2
41556;SDS011;27720;51.992;5.890;2024-01-07T00:02:14;25.67;;;9.07;;
41556;SDS011;27720;51.992;5.890;2024-01-07T00:04:40;13.27;;;5.25;;
41556;SDS011;27720;51.992;5.890;2024-01-07T00:07:06;18.23;;;7.85;;
41556;SDS011;27720;51.992;5.890;2024-01-07T00:09:32;20.25;;;6.03;;
41556;SDS011;27720;51.992;5.890;2024-01-07T00:11:57;13.25;;;5.47;;
41556;SDS011;27720;51.992;5.890;2024-01-07T00:14:24;16.25;;;6.32;;
41556;SDS011;27720;51.992;5.890;2024-01-07T00:16:50;23.35;;;7.68;;
41556;SDS011;27720;51.992;5.890;2024-01-07T00:19:16;18.45;;;6.53;;
41556;SDS011;27720;51.992;5.890;2024-01-07T00:21:42;18.90;;;6.95;;
41556;SDS011;27720;51.992;5.890;2024-01-07T00:24:08;16.40;;;5.28;;
41556;SDS011;27720;51.992;5.890;2024-01-07T00:26:34;20.25;;;6.63;;
41556;SDS011;27720;51.992;5.890;2024-01-07T00:28:59;17.13;;;7.38;;
41556;SDS011;27720;51.992;5.890;2024-01-07T00:31:25;18.92;;;6.20;;
41556;SDS011;27720;51.992;5.890;2024-01-07T00:33:51;21.40;;;7.82;;
41556;SDS011;27720;51.992;5.890;2024-01-07T00:36:17;16.13;;;6.25;;
41556;SDS011;27720;51.992;5.890;2024-01-07T00:38:43;25.02;;;8.45;;
41556;SDS011;27720;51.992;5.890;2024-01-07T00:41:11;20.20;;;8.10;;
41556;SDS011;27720;51.992;5.890;2024-01-07T00:43:37;22.95;;;7.13;;
41556;SDS011;27720;51.992;5.890;2024-01-07T00:46:04;20.70;;;6.65;;
41556;SDS011;27720;51.992;5.890;2024-01-07T00:48:29;24.15;;;7.10;;
41556;SDS011;27720;51.992;5.890;2024-01-07T00:50:55;21.48;;;8.15;;
41556;SDS011;27720;51.992;5.890;2024-01-07T00:53:21;14.70;;;6.00;;
41556;SDS011;27720;51.992;5.890;2024-01-07T00:55:47;28.67;;;8.43;;
41556;SDS011;27720;51.992;5.890;2024-01-07T00:58:12;20.38;;;6.97;;
41556;SDS011;27720;51.992;5.890;2024-01-07T01:00:41;26.65;;;8.82;;
41556;SDS011;27720;51.992;5.890;2024-01-07T01:03:07;17.45;;;6.93;;
41556;SDS011;27720;51.992;5.890;2024-01-07T01:05:33;24.48;;;8.48;;
41556;SDS011;27720;51.992;5.890;2024-01-07T01:07:59;19.83;;;7.18;;
41556;SDS011;27720;51.992;5.890;2024-01-07T01:10:25;21.08;;;7.68;;
41556;SDS011;27720;51.992;5.890;2024-01-07T01:12:51;24.92;;;7.30;;
41556;SDS011;27720;51.992;5.890;2024-01-07T01:15:19;33.63;;;8.90;;
41556;SDS011;27720;51.992;5.890;2024-01-07T01:17:45;25.60;;;8.13;;
41556;SDS011;27720;51.992;5.890;2024-01-07T01:20:11;11.10;;;5.32;;
41556;SDS011;27720;51.992;5.890;2024-01-07T01:22:37;26.20;;;7.88;;
41556;SDS011;27720;51.992;5.890;2024-01-07T01:25:04;24.88;;;7.30;;
41556;SDS011;27720;51.992;5.890;2024-01-07T01:27:30;22.45;;;7.70;;
41556;SDS011;27720;51.992;5.890;2024-01-07T01:29:56;18.70;;;6.85;;
41556;SDS011;27720;51.992;5.890;2024-01-07T01:32:24;23.95;;;7.72;;
41556;SDS011;27720;51.992;5.890;2024-01-07T01:34:50;25.90;;;8.38;;
41556;SDS011;27720;51.992;5.890;2024-01-07T01:37:15;17.08;;;6.07;;
41556;SDS011;27720;51.992;5.890;2024-01-07T01:39:41;15.38;;;6.35;;
41556;SDS011;27720;51.992;5.890;2024-01-07T01:42:07;18.67;;;6.72;;
41556;SDS011;27720;51.992;5.890;2024-01-07T01:44:33;22.20;;;7.43;;
41556;SDS011;27720;51.992;5.890;2024-01-07T01:46:59;23.08;;;9.13;;
41556;SDS011;27720;51.992;5.890;2024-01-07T01:49:27;21.80;;;8.68;;
41556;SDS011;27720;51.992;5.890;2024-01-07T01:51:53;24.98;;;7.82;;
41556;SDS011;27720;51.992;5.890;2024-01-07T01:54:19;18.80;;;6.95;;
41556;SDS011;27720;51.992;5.890;2024-01-07T01:56:46;24.65;;;7.63;;
41556;SDS011;27720;51.992;5.890;2024-01-07T01:59:14;18.20;;;6.63;;
41556;SDS011;27720;51.992;5.890;2024-01-07T02:01:40;16.05;;;5.65;;
41556;SDS011;27720;51.992;5.890;2024-01-07T02:04:06;18.60;;;7.15;;
41556;SDS011;27720;51.992;5.890;2024-01-07T02:06:33;17.95;;;6.97;;
41556;SDS011;27720;51.992;5.890;2024-01-07T02:09:01;13.43;;;5.22;;
41556;SDS011;27720;51.992;5.890;2024-01-07T02:11:27;19.23;;;8.00;;
41556;SDS011;27720;51.992;5.890;2024-01-07T02:13:52;21.98;;;8.32;;
41556;SDS011;27720;51.992;5.890;2024-01-07T02:16:18;16.95;;;6.22;;
41556;SDS011;27720;51.992;5.890;2024-01-07T02:18:45;16.58;;;6.03;;
41556;SDS011;27720;51.992;5.890;2024-01-07T02:21:11;24.13;;;7.13;;
41556;SDS011;27720;51.992;5.890;2024-01-07T02:23:38;20.35;;;6.50;;
41556;SDS011;27720;51.992;5.890;2024-01-07T02:26:04;24.27;;;8.88;;
41556;SDS011;27720;51.992;5.890;2024-01-07T02:28:31;21.75;;;7.72;;
41556;SDS011;27720;51.992;5.890;2024-01-07T02:30:58;18.92;;;8.48;;
41556;SDS011;27720;51.992;5.890;2024-01-07T02:33:24;14.88;;;5.53;;
41556;SDS011;27720;51.992;5.890;2024-01-07T02:35:50;18.30;;;6.70;;
41556;SDS011;27720;51.992;5.890;2024-01-07T02:38:16;22.05;;;7.05;;
41556;SDS011;27720;51.992;5.890;2024-01-07T02:40:41;24.55;;;6.72;;
41556;SDS011;27720;51.992;5.890;2024-01-07T02:43:08;25.33;;;8.80;;
41556;SDS011;27720;51.992;5.890;2024-01-07T12:56:54;2.67;;;1.60;;
41556;SDS011;27720;51.992;5.890;2024-01-07T12:59:20;1.85;;;1.33;;
41556;SDS011;27720;51.992;5.890;2024-01-07T13:01:45;1.23;;;1.10;;
41556;SDS011;27720;51.992;5.890;2024-01-07T13:04:11;1.38;;;1.20;;
41556;SDS011;27720;51.992;5.890;2024-01-07T13:06:38;2.92;;;1.45;;
41556;SDS011;27720;51.992;5.890;2024-01-07T13:09:04;3.05;;;1.52;;
41556;SDS011;27720;51.992;5.890;2024-01-07T13:11:30;2.00;;;1.30;;
41556;SDS011;27720;51.992;5.890;2024-01-07T13:13:56;5.15;;;1.08;;
41556;SDS011;27720;51.992;5.890;2024-01-07T13:16:25;3.67;;;1.50;;
41556;SDS011;27720;51.992;5.890;2024-01-07T13:18:51;2.30;;;1.25;;
41556;SDS011;27720;51.992;5.890;2024-01-07T13:21:17;3.75;;;0.85;;
41556;SDS011;27720;51.992;5.890;2024-01-07T13:23:43;2.38;;;1.38;;
41556;SDS011;27720;51.992;5.890;2024-01-07T13:26:09;1.95;;;1.50;;
41556;SDS011;27720;51.992;5.890;2024-01-07T13:28:35;2.65;;;1.17;;
41556;SDS011;27720;51.992;5.890;2024-01-07T13:31:01;2.80;;;1.63;;
41556;SDS011;27720;51.992;5.890;2024-01-07T13:33:28;1.40;;;0.93;;
41556;SDS011;27720;51.992;5.890;2024-01-07T13:35:55;2.72;;;1.52;;
41556;SDS011;27720;51.992;5.890;2024-01-07T13:38:21;1.67;;;1.23;;
41556;SDS011;27720;51.992;5.890;2024-01-07T13:40:47;2.83;;;1.20;;
41556;SDS011;27720;51.992;5.890;2024-01-07T13:43:13;1.67;;;1.08;;
41556;SDS011;27720;51.992;5.890;2024-01-07T13:45:41;1.58;;;1.10;;
41556;SDS011;27720;51.992;5.890;2024-01-07T13:48:06;2.88;;;1.50;;
41556;SDS011;27720;51.992;5.890;2024-01-07T13:50:32;1.85;;;1.10;;
41556;SDS011;27720;51.992;5.890;2024-01-07T13:52:58;1.70;;;0.70;;
41556;SDS011;27720;51.992;5.890;2024-01-07T13:55:24;1.73;;;1.05;;
41556;SDS011;27720;51.992;5.890;2024-01-07T13:57:50;1.17;;;0.95;;
41556;SDS011;27720;51.992;5.890;2024-01-07T14:00:16;4.13;;;1.13;;
41556;SDS011;27720;51.992;5.890;2024-01-07T14:02:44;1.90;;;1.00;;
41556;SDS011;27720;51.992;5.890;2024-01-07T14:05:14;0.93;;;0.80;;
41556;SDS011;27720;51.992;5.890;2024-01-07T14:07:40;0.90;;;0.60;;
41556;SDS011;27720;51.992;5.890;2024-01-07T14:10:06;1.13;;;0.95;;
41556;SDS011;27720;51.992;5.890;2024-01-07T14:12:33;1.40;;;1.00;;
41556;SDS011;27720;51.992;5.890;2024-01-07T14:14:59;1.35;;;0.75;;
41556;SDS011;27720;51.992;5.890;2024-01-07T14:17:25;2.67;;;1.13;;
41556;SDS011;27720;51.992;5.890;2024-01-07T14:19:51;1.10;;;0.90;;
41556;SDS011;27720;51.992;5.890;2024-01-07T14:22:21;1.55;;;0.82;;
41556;SDS011;27720;51.992;5.890;2024-01-07T14:24:47;1.38;;;0.88;;
41556;SDS011;27720;51.992;5.890;2024-01-07T14:27:14;1.48;;;0.82;;
41556;SDS011;27720;51.992;5.890;2024-01-07T14:29:40;1.02;;;0.80;;
41556;SDS011;27720;51.992;5.890;2024-01-07T14:32:06;2.30;;;0.82;;
41556;SDS011;27720;51.992;5.890;2024-01-07T14:34:32;1.92;;;0.93;;
41556;SDS011;27720;51.992;5.890;2024-01-07T14:36:58;1.55;;;0.70;;
41556;SDS011;27720;51.992;5.890;2024-01-07T14:39:25;3.03;;;1.10;;
41556;SDS011;27720;51.992;5.890;2024-01-07T14:41:51;0.95;;;0.68;;
41556;SDS011;27720;51.992;5.890;2024-01-07T14:44:17;1.20;;;0.85;;
41556;SDS011;27720;51.992;5.890;2024-01-07T14:46:42;2.20;;;1.10;;
41556;SDS011;27720;51.992;5.890;2024-01-07T14:49:08;2.45;;;0.82;;
41556;SDS011;27720;51.992;5.890;2024-01-07T14:51:34;2.00;;;1.00;;
41556;SDS011;27720;51.992;5.890;2024-01-07T14:53:59;3.30;;;1.73;;
41556;SDS011;27720;51.992;5.890;2024-01-07T14:56:25;1.30;;;1.17;;
41556;SDS011;27720;51.992;5.890;2024-01-07T14:58:51;1.90;;;1.20;;
41556;SDS011;27720;51.992;5.890;2024-01-07T15:01:17;1.90;;;1.10;;
41556;SDS011;27720;51.992;5.890;2024-01-07T15:03:43;1.70;;;1.30;;
41556;SDS011;27720;51.992;5.890;2024-01-07T15:06:09;1.42;;;1.08;;
41556;SDS011;27720;51.992;5.890;2024-01-07T15:08:36;1.77;;;1.17;;
41556;SDS011;27720;51.992;5.890;2024-01-07T15:11:02;1.25;;;0.70;;
41556;SDS011;27720;51.992;5.890;2024-01-07T15:13:31;1.92;;;1.08;;
41556;SDS011;27720;51.992;5.890;2024-01-07T15:18:25;1.30;;;1.05;;
41556;SDS011;27720;51.992;5.890;2024-01-07T15:20:51;1.38;;;0.73;;
41556;SDS011;27720;51.992;5.890;2024-01-07T15:23:20;1.30;;;0.80;;
41556;SDS011;27720;51.992;5.890;2024-01-07T15:25:45;2.25;;;0.90;;
41556;SDS011;27720;51.992;5.890;2024-01-07T15:28:14;1.23;;;0.85;;
41556;SDS011;27720;51.992;5.890;2024-01-07T15:30:44;1.17;;;0.77;;
41556;SDS011;27720;51.992;5.890;2024-01-07T15:33:10;1.50;;;0.70;;
41556;SDS011;27720;51.992;5.890;2024-01-07T15:35:35;1.42;;;0.70;;
41556;SDS011;27720;51.992;5.890;2024-01-07T15:38:01;3.28;;;1.05;;
41556;SDS011;27720;51.992;5.890;2024-01-07T15:40:27;1.33;;;0.70;;
41556;SDS011;27720;51.992;5.890;2024-01-07T15:42:53;1.08;;;0.80;;
41556;SDS011;27720;51.992;5.890;2024-01-07T15:45:19;1.63;;;0.80;;
41556;SDS011;27720;51.992;5.890;2024-01-07T15:47:44;1.27;;;0.50;;
41556;SDS011;27720;51.992;5.890;2024-01-07T15:50:10;1.40;;;0.70;;
41556;SDS011;27720;51.992;5.890;2024-01-07T15:52:36;1.85;;;0.77;;
41556;SDS011;27720;51.992;5.890;2024-01-07T15:55:02;2.17;;;0.80;;
41556;SDS011;27720;51.992;5.890;2024-01-07T15:57:27;1.17;;;0.65;;
41556;SDS011;27720;51.992;5.890;2024-01-07T15:59:53;2.85;;;0.70;;
41556;SDS011;27720;51.992;5.890;2024-01-07T16:02:19;2.25;;;1.17;;
41556;SDS011;27720;51.992;5.890;2024-01-07T16:04:47;1.52;;;1.02;;
41556;SDS011;27720;51.992;5.890;2024-01-07T16:07:13;1.98;;;0.90;;
41556;SDS011;27720;51.992;5.890;2024-01-07T16:09:38;1.77;;;0.95;;
41556;SDS011;27720;51.992;5.890;2024-01-07T16:12:04;2.58;;;0.73;;
41556;SDS011;27720;51.992;5.890;2024-01-07T16:14:32;1.92;;;1.00;;
41556;SDS011;27720;51.992;5.890;2024-01-07T16:17:00;1.48;;;0.80;;
41556;SDS011;27720;51.992;5.890;2024-01-07T16:19:29;1.70;;;0.73;;
41556;SDS011;27720;51.992;5.890;2024-01-07T16:21:55;2.42;;;0.98;;
41556;SDS011;27720;51.992;5.890;2024-01-07T16:24:23;1.45;;;0.90;;
41556;SDS011;27720;51.992;5.890;2024-01-07T16:26:50;2.95;;;1.13;;
41556;SDS011;27720;51.992;5.890;2024-01-07T16:29:15;2.08;;;1.00;;
41556;SDS011;27720;51.992;5.890;2024-01-07T16:31:41;2.53;;;1.38;;
41556;SDS011;27720;51.992;5.890;2024-01-07T16:34:07;2.05;;;1.00;;
41556;SDS011;27720;51.992;5.890;2024-01-07T16:36:32;2.80;;;1.00;;
41556;SDS011;27720;51.992;5.890;2024-01-07T16:38:59;4.30;;;1.23;;
41556;SDS011;27720;51.992;5.890;2024-01-07T16:41:27;2.40;;;1.42;;
41556;SDS011;27720;51.992;5.890;2024-01-07T16:43:54;3.17;;;1.52;;
41556;SDS011;27720;51.992;5.890;2024-01-07T16:46:20;3.47;;;1.42;;
41556;SDS011;27720;51.992;5.890;2024-01-07T16:48:45;2.75;;;1.13;;
41556;SDS011;27720;51.992;5.890;2024-01-07T16:51:12;4.13;;;1.10;;
41556;SDS011;27720;51.992;5.890;2024-01-07T16:53:40;2.83;;;1.08;;
41556;SDS011;27720;51.992;5.890;2024-01-07T16:56:09;2.15;;;1.17;;
41556;SDS011;27720;51.992;5.890;2024-01-07T16:58:35;2.10;;;1.23;;
41556;SDS011;27720;51.992;5.890;2024-01-07T17:01:01;2.05;;;1.05;;
41556;SDS011;27720;51.992;5.890;2024-01-07T17:03:26;2.25;;;1.02;;
41556;SDS011;27720;51.992;5.890;2024-01-07T17:05:52;2.00;;;1.15;;
41556;SDS011;27720;51.992;5.890;2024-01-07T17:08:18;2.60;;;1.20;;
41556;SDS011;27720;51.992;5.890;2024-01-07T17:10:47;2.78;;;1.17;;
41556;SDS011;27720;51.992;5.890;2024-01-07T17:13:12;2.63;;;1.40;;
41556;SDS011;27720;51.992;5.890;2024-01-07T17:15:38;1.98;;;1.42;;
41556;SDS011;27720;51.992;5.890;2024-01-07T17:18:05;2.13;;;1.10;;
41556;SDS011;27720;51.992;5.890;2024-01-07T17:20:30;3.15;;;1.30;;
41556;SDS011;27720;51.992;5.890;2024-01-07T17:22:58;3.63;;;2.22;;
41556;SDS011;27720;51.992;5.890;2024-01-07T17:25:24;4.63;;;1.20;;
41556;SDS011;27720;51.992;5.890;2024-01-07T17:27:50;2.47;;;1.10;;
41556;SDS011;27720;51.992;5.890;2024-01-07T17:30:16;4.03;;;1.67;;
41556;SDS011;27720;51.992;5.890;2024-01-07T17:32:42;0.80;;;0.80;;
41556;SDS011;27720;51.992;5.890;2024-01-07T17:35:08;2.22;;;1.25;;
41556;SDS011;27720;51.992;5.890;2024-01-07T17:37:37;2.65;;;1.25;;
41556;SDS011;27720;51.992;5.890;2024-01-07T17:40:04;4.32;;;1.48;;
41556;SDS011;27720;51.992;5.890;2024-01-07T17:42:30;3.70;;;1.42;;
41556;SDS011;27720;51.992;5.890;2024-01-07T17:44:56;3.00;;;1.33;;
41556;SDS011;27720;51.992;5.890;2024-01-07T17:47:25;3.08;;;1.75;;
41556;SDS011;27720;51.992;5.890;2024-01-07T17:49:50;3.60;;;1.33;;
41556;SDS011;27720;51.992;5.890;2024-01-07T17:52:16;3.58;;;1.38;;
41556;SDS011;27720;51.992;5.890;2024-01-07T17:54:41;5.05;;;2.45;;
41556;SDS011;27720;51.992;5.890;2024-01-07T17:57:07;3.28;;;1.73;;
41556;SDS011;27720;51.992;5.890;2024-01-07T17:59:33;3.38;;;1.42;;
41556;SDS011;27720;51.992;5.890;2024-01-07T18:01:59;5.25;;;2.30;;
41556;SDS011;27720;51.992;5.890;2024-01-07T18:04:26;4.45;;;1.80;;
41556;SDS011;27720;51.992;5.890;2024-01-07T18:06:52;5.53;;;1.70;;
41556;SDS011;27720;51.992;5.890;2024-01-07T18:09:19;2.30;;;1.30;;
41556;SDS011;27720;51.992;5.890;2024-01-07T18:11:44;3.08;;;1.58;;
41556;SDS011;27720;51.992;5.890;2024-01-07T18:14:10;2.30;;;1.50;;
41556;SDS011;27720;51.992;5.890;2024-01-07T18:16:40;5.82;;;2.08;;
41556;SDS011;27720;51.992;5.890;2024-01-07T18:19:06;5.43;;;1.60;;
41556;SDS011;27720;51.992;5.890;2024-01-07T18:21:35;4.15;;;1.70;;
41556;SDS011;27720;51.992;5.890;2024-01-07T18:24:03;4.47;;;1.83;;
41556;SDS011;27720;51.992;5.890;2024-01-07T18:26:29;4.20;;;1.60;;
41556;SDS011;27720;51.992;5.890;2024-01-07T18:28:55;2.40;;;1.30;;
41556;SDS011;27720;51.992;5.890;2024-01-07T18:31:21;3.03;;;1.67;;
41556;SDS011;27720;51.992;5.890;2024-01-07T18:33:52;2.00;;;1.17;;
41556;SDS011;27720;51.992;5.890;2024-01-07T18:36:23;5.68;;;2.10;;
41556;SDS011;27720;51.992;5.890;2024-01-07T18:38:48;2.58;;;1.63;;
41556;SDS011;27720;51.992;5.890;2024-01-07T18:41:19;4.45;;;1.88;;
41556;SDS011;27720;51.992;5.890;2024-01-07T18:43:45;3.83;;;1.33;;
41556;SDS011;27720;51.992;5.890;2024-01-07T18:46:15;2.28;;;1.38;;
41556;SDS011;27720;51.992;5.890;2024-01-07T18:48:43;6.57;;;2.17;;
41556;SDS011;27720;51.992;5.890;2024-01-07T18:51:09;5.95;;;2.30;;
41556;SDS011;27720;51.992;5.890;2024-01-07T18:53:38;6.35;;;2.20;;
41556;SDS011;27720;51.992;5.890;2024-01-07T18:56:05;2.83;;;1.23;;
41556;SDS011;27720;51.992;5.890;2024-01-07T18:58:32;3.13;;;1.73;;
41556;SDS011;27720;51.992;5.890;2024-01-07T19:00:59;4.90;;;1.77;;
41556;SDS011;27720;51.992;5.890;2024-01-07T19:03:25;4.10;;;2.10;;
41556;SDS011;27720;51.992;5.890;2024-01-07T19:05:51;5.07;;;2.35;;
41556;SDS011;27720;51.992;5.890;2024-01-07T19:08:17;5.95;;;1.92;;
41556;SDS011;27720;51.992;5.890;2024-01-07T19:10:43;3.42;;;1.48;;
41556;SDS011;27720;51.992;5.890;2024-01-07T19:13:12;4.72;;;2.38;;
41556;SDS011;27720;51.992;5.890;2024-01-07T19:15:41;7.18;;;2.80;;
41556;SDS011;27720;51.992;5.890;2024-01-07T19:18:10;6.45;;;2.95;;
41556;SDS011;27720;51.992;5.890;2024-01-07T19:20:45;5.97;;;2.80;;
41556;SDS011;27720;51.992;5.890;2024-01-07T19:23:11;4.15;;;2.42;;
41556;SDS011;27720;51.992;5.890;2024-01-07T19:25:37;2.20;;;1.45;;
41556;SDS011;27720;51.992;5.890;2024-01-07T19:28:03;4.13;;;1.92;;
41556;SDS011;27720;51.992;5.890;2024-01-07T19:30:29;6.32;;;2.22;;
41556;SDS011;27720;51.992;5.890;2024-01-07T19:32:56;8.90;;;2.58;;
41556;SDS011;27720;51.992;5.890;2024-01-07T19:35:22;10.15;;;2.78;;
41556;SDS011;27720;51.992;5.890;2024-01-07T19:37:47;5.78;;;2.53;;
41556;SDS011;27720;51.992;5.890;2024-01-07T19:40:15;2.88;;;1.60;;
41556;SDS011;27720;51.992;5.890;2024-01-07T19:42:41;3.70;;;1.75;;
41556;SDS011;27720;51.992;5.890;2024-01-07T19:45:07;3.88;;;2.17;;
41556;SDS011;27720;51.992;5.890;2024-01-07T19:47:33;3.00;;;1.88;;
41556;SDS011;27720;51.992;5.890;2024-01-07T19:49:59;4.85;;;2.00;;
41556;SDS011;27720;51.992;5.890;2024-01-07T19:52:24;5.45;;;2.58;;
41556;SDS011;27720;51.992;5.890;2024-01-07T19:54:50;1.77;;;1.08;;
41556;SDS011;27720;51.992;5.890;2024-01-07T19:57:16;5.32;;;2.33;;
41556;SDS011;27720;51.992;5.890;2024-01-07T19:59:41;2.15;;;1.45;;
41556;SDS011;27720;51.992;5.890;2024-01-07T20:02:07;5.75;;;2.10;;
41556;SDS011;27720;51.992;5.890;2024-01-07T20:04:33;3.58;;;2.20;;
41556;SDS011;27720;51.992;5.890;2024-01-07T20:06:59;5.95;;;1.83;;
41556;SDS011;27720;51.992;5.890;2024-01-07T20:09:28;7.10;;;1.75;;
41556;SDS011;27720;51.992;5.890;2024-01-07T20:11:54;4.43;;;1.73;;
41556;SDS011;27720;51.992;5.890;2024-01-07T20:14:20;5.38;;;1.83;;
41556;SDS011;27720;51.992;5.890;2024-01-07T20:16:45;5.88;;;2.20;;
41556;SDS011;27720;51.992;5.890;2024-01-07T20:19:11;5.13;;;2.60;;
41556;SDS011;27720;51.992;5.890;2024-01-07T20:21:38;7.35;;;3.08;;
41556;SDS011;27720;51.992;5.890;2024-01-07T20:24:06;5.72;;;2.75;;
41556;SDS011;27720;51.992;5.890;2024-01-07T20:26:31;7.40;;;2.80;;
41556;SDS011;27720;51.992;5.890;2024-01-07T20:28:57;3.85;;;1.55;;
41556;SDS011;27720;51.992;5.890;2024-01-07T20:31:26;4.60;;;1.77;;
41556;SDS011;27720;51.992;5.890;2024-01-07T20:33:54;4.85;;;1.65;;
41556;SDS011;27720;51.992;5.890;2024-01-07T20:36:19;3.53;;;2.28;;
41556;SDS011;27720;51.992;5.890;2024-01-07T20:38:45;6.07;;;1.83;;
41556;SDS011;27720;51.992;5.890;2024-01-07T20:41:11;4.13;;;1.67;;
41556;SDS011;27720;51.992;5.890;2024-01-07T20:43:47;13.48;;;2.72;;
41556;SDS011;27720;51.992;5.890;2024-01-07T20:46:14;3.88;;;1.98;;
41556;SDS011;27720;51.992;5.890;2024-01-07T20:48:46;5.75;;;2.28;;
41556;SDS011;27720;51.992;5.890;2024-01-07T20:51:12;3.78;;;1.77;;
41556;SDS011;27720;51.992;5.890;2024-01-07T20:53:38;4.13;;;2.55;;
41556;SDS011;27720;51.992;5.890;2024-01-07T20:56:04;3.65;;;2.00;;
41556;SDS011;27720;51.992;5.890;2024-01-07T20:58:30;3.53;;;2.15;;
41556;SDS011;27720;51.992;5.890;2024-01-07T21:00:56;3.45;;;2.08;;
41556;SDS011;27720;51.992;5.890;2024-01-07T21:03:21;4.63;;;1.95;;
41556;SDS011;27720;51.992;5.890;2024-01-07T21:05:49;5.72;;;2.22;;
41556;SDS011;27720;51.992;5.890;2024-01-07T21:08:28;5.57;;;2.45;;
41556;SDS011;27720;51.992;5.890;2024-01-07T21:11:03;4.80;;;2.08;;
41556;SDS011;27720;51.992;5.890;2024-01-07T21:13:30;2.92;;;1.70;;
41556;SDS011;27720;51.992;5.890;2024-01-07T21:15:55;6.28;;;2.35;;
41556;SDS011;27720;51.992;5.890;2024-01-07T21:18:21;6.60;;;2.10;;
41556;SDS011;27720;51.992;5.890;2024-01-07T21:20:47;5.20;;;2.03;;
41556;SDS011;27720;51.992;5.890;2024-01-07T21:23:16;9.02;;;2.88;;
41556;SDS011;27720;51.992;5.890;2024-01-07T21:25:43;5.72;;;2.75;;
41556;SDS011;27720;51.992;5.890;2024-01-07T21:28:11;3.13;;;2.00;;
41556;SDS011;27720;51.992;5.890;2024-01-07T21:30:40;5.05;;;3.17;;
41556;SDS011;27720;51.992;5.890;2024-01-07T21:33:10;5.18;;;2.42;;
41556;SDS011;27720;51.992;5.890;2024-01-07T21:35:35;4.72;;;2.13;;
41556;SDS011;27720;51.992;5.890;2024-01-07T21:38:01;5.88;;;3.25;;
41556;SDS011;27720;51.992;5.890;2024-01-07T21:40:27;5.63;;;2.95;;
41556;SDS011;27720;51.992;5.890;2024-01-07T21:42:56;6.32;;;2.92;;
41556;SDS011;27720;51.992;5.890;2024-01-07T21:45:21;5.22;;;2.72;;
41556;SDS011;27720;51.992;5.890;2024-01-07T21:47:47;7.18;;;3.00;;
41556;SDS011;27720;51.992;5.890;2024-01-07T21:50:13;4.50;;;2.75;;
41556;SDS011;27720;51.992;5.890;2024-01-07T21:52:50;5.97;;;3.40;;
41556;SDS011;27720;51.992;5.890;2024-01-07T21:55:18;4.47;;;2.88;;
41556;SDS011;27720;51.992;5.890;2024-01-07T21:57:44;4.32;;;2.50;;
41556;SDS011;27720;51.992;5.890;2024-01-07T22:00:10;11.25;;;3.25;;
41556;SDS011;27720;51.992;5.890;2024-01-07T22:02:36;4.28;;;2.50;;
41556;SDS011;27720;51.992;5.890;2024-01-07T22:05:02;5.47;;;3.05;;
41556;SDS011;27720;51.992;5.890;2024-01-07T22:07:28;7.03;;;2.97;;
41556;SDS011;27720;51.992;5.890;2024-01-07T22:09:57;7.22;;;3.13;;
41556;SDS011;27720;51.992;5.890;2024-01-07T22:12:23;5.82;;;2.90;;
41556;SDS011;27720;51.992;5.890;2024-01-07T22:14:48;4.25;;;2.40;;
41556;SDS011;27720;51.992;5.890;2024-01-07T22:17:14;4.57;;;2.65;;
41556;SDS011;27720;51.992;5.890;2024-01-07T22:19:44;4.68;;;2.40;;
41556;SDS011;27720;51.992;5.890;2024-01-07T22:22:12;4.65;;;2.38;;
41556;SDS011;27720;51.992;5.890;2024-01-07T22:24:45;4.10;;;2.60;;
41556;SDS011;27720;51.992;5.890;2024-01-07T22:27:11;7.03;;;2.65;;
41556;SDS011;27720;51.992;5.890;2024-01-07T22:29:37;4.18;;;1.92;;
41556;SDS011;27720;51.992;5.890;2024-01-07T22:32:02;3.50;;;2.15;;
41556;SDS011;27720;51.992;5.890;2024-01-07T22:34:29;3.42;;;2.00;;
41556;SDS011;27720;51.992;5.890;2024-01-07T22:36:54;5.15;;;2.35;;
41556;SDS011;27720;51.992;5.890;2024-01-07T22:39:20;2.05;;;1.60;;
41556;SDS011;27720;51.992;5.890;2024-01-07T22:41:46;4.55;;;2.67;;
41556;SDS011;27720;51.992;5.890;2024-01-07T22:44:12;2.30;;;1.90;;
41556;SDS011;27720;51.992;5.890;2024-01-07T22:46:43;3.83;;;2.00;;
41556;SDS011;27720;51.992;5.890;2024-01-07T22:49:14;2.95;;;1.25;;
41556;SDS011;27720;51.992;5.890;2024-01-07T22:51:44;2.17;;;1.55;;
41556;SDS011;27720;51.992;5.890;2024-01-07T22:54:11;5.75;;;1.95;;
41556;SDS011;27720;51.992;5.890;2024-01-07T22:56:42;2.03;;;1.63;;
41556;SDS011;27720;51.992;5.890;2024-01-07T22:59:09;2.45;;;1.50;;
41556;SDS011;27720;51.992;5.890;2024-01-07T23:01:37;3.25;;;1.67;;
41556;SDS011;27720;51.992;5.890;2024-01-07T23:04:05;3.03;;;1.60;;
41556;SDS011;27720;51.992;5.890;2024-01-07T23:06:34;2.15;;;1.30;;
41556;SDS011;27720;51.992;5.890;2024-01-07T23:09:02;3.00;;;1.63;;
41556;SDS011;27720;51.992;5.890;2024-01-07T23:11:31;3.30;;;1.38;;
41556;SDS011;27720;51.992;5.890;2024-01-07T23:13:57;3.60;;;1.77;;
41556;SDS011;27720;51.992;5.890;2024-01-07T23:16:23;4.22;;;2.00;;
41556;SDS011;27720;51.992;5.890;2024-01-07T23:18:49;3.33;;;1.98;;
41556;SDS011;27720;51.992;5.890;2024-01-07T23:21:15;3.08;;;1.63;;
41556;SDS011;27720;51.992;5.890;2024-01-07T23:23:41;2.67;;;1.67;;
41556;SDS011;27720;51.992;5.890;2024-01-07T23:26:06;3.22;;;1.58;;
41556;SDS011;27720;51.992;5.890;2024-01-07T23:28:32;3.63;;;2.00;;
41556;SDS011;27720;51.992;5.890;2024-01-07T23:31:02;3.88;;;1.92;;
41556;SDS011;27720;51.992;5.890;2024-01-07T23:33:28;4.50;;;2.22;;
41556;SDS011;27720;51.992;5.890;2024-01-07T23:35:54;2.78;;;1.58;;
41556;SDS011;27720;51.992;5.890;2024-01-07T23:38:19;4.22;;;1.98;;
41556;SDS011;27720;51.992;5.890;2024-01-07T23:40:45;4.03;;;1.77;;
41556;SDS011;27720;51.992;5.890;2024-01-07T23:43:11;3.28;;;1.70;;
41556;SDS011;27720;51.992;5.890;2024-01-07T23:45:36;4.10;;;2.33;;
41556;SDS011;27720;51.992;5.890;2024-01-07T23:48:03;3.50;;;2.10;;
41556;SDS011;27720;51.992;5.890;2024-01-07T23:50:29;5.22;;;1.83;;
41556;SDS011;27720;51.992;5.890;2024-01-07T23:52:55;4.22;;;2.33;;
41556;SDS011;27720;51.992;5.890;2024-01-07T23:55:20;3.67;;;1.60;;
41556;SDS011;27720;51.992;5.890;2024-01-07T23:57:46;4.45;;;2.03;;
